createdAt,value
2022-08-07T00:04:11.292Z,3.30
2022-08-07T00:22:51.518Z,1.70
2022-08-07T00:41:32.076Z,2.50
2022-08-07T01:00:10.783Z,2.20
2022-08-07T01:18:50.673Z,2.90
2022-08-07T01:37:30.434Z,3.20
2022-08-07T01:56:09.836Z,1.90
2022-08-07T02:33:32.967Z,2.80
2022-08-07T03:10:51.527Z,2.50
2022-08-07T03:29:31.691Z,2.20
2022-08-07T03:48:12.050Z,3.50
2022-08-07T04:06:51.716Z,2.50
2022-08-07T04:25:30.665Z,3.00
2022-08-07T04:44:14.687Z,2.60
2022-08-07T05:02:51.475Z,3.00
2022-08-07T05:21:59.585Z,3.40
2022-08-07T05:40:14.201Z,4.10
2022-08-07T05:58:49.147Z,4.90
2022-08-07T06:17:30.477Z,4.40
2022-08-07T06:36:13.608Z,4.00
2022-08-07T06:55:30.952Z,5.00
2022-08-07T07:13:40.679Z,4.40
2022-08-07T07:32:13.920Z,4.30
2022-08-07T07:50:56.233Z,3.90
2022-08-07T08:09:51.919Z,4.00
2022-08-07T08:28:10.499Z,3.10
2022-08-07T09:05:37.044Z,3.30
2022-08-07T09:24:29.541Z,4.00
2022-08-07T09:43:02.890Z,4.20
2022-08-07T10:01:50.824Z,3.30
2022-08-07T11:16:39.925Z,2.00
2022-08-07T11:35:17.967Z,1.70
2022-08-07T12:31:53.470Z,1.50
2022-08-07T13:08:54.821Z,2.20
2022-08-07T13:28:06.348Z,0.70
2022-08-07T13:46:41.621Z,1.30
2022-08-07T14:24:04.514Z,0.70
2022-08-07T14:43:01.569Z,1.10
2022-08-07T15:01:42.584Z,1.40
2022-08-07T15:38:59.402Z,1.10
2022-08-07T15:57:28.391Z,1.50
2022-08-07T16:15:55.858Z,1.30
2022-08-07T16:34:27.688Z,2.00
2022-08-07T16:53:27.037Z,2.50
2022-08-07T17:12:01.573Z,1.60
2022-08-07T17:30:20.372Z,2.10
2022-08-07T17:48:57.204Z,1.70
2022-08-07T18:07:34.587Z,1.60
2022-08-07T18:26:14.773Z,1.60
2022-08-07T19:03:35.463Z,3.20
2022-08-07T19:22:04.506Z,2.10
2022-08-07T19:40:47.523Z,2.00
2022-08-07T19:59:27.264Z,2.10
2022-08-07T20:18:01.871Z,3.30
2022-08-07T20:55:19.705Z,3.10
2022-08-07T21:13:58.045Z,2.40
2022-08-07T21:32:43.279Z,1.90
2022-08-07T22:09:56.394Z,2.80
2022-08-07T22:28:36.094Z,2.00
2022-08-07T22:47:15.009Z,3.00
2022-08-07T23:06:08.030Z,3.10
2022-08-07T23:24:38.637Z,3.40
